createdAt,value
2023-04-19T00:00:43.071Z,53.01
2023-04-19T00:01:43.039Z,52.37
2023-04-19T00:02:43.228Z,52.37
2023-04-19T00:03:43.070Z,52.21
2023-04-19T00:04:43.066Z,52.53
2023-04-19T00:05:42.986Z,52.21
2023-04-19T00:06:42.996Z,52.53
2023-04-19T00:07:42.960Z,52.37
2023-04-19T00:08:42.950Z,52.69
2023-04-19T00:09:42.969Z,52.37
2023-04-19T00:10:42.951Z,52.37
2023-04-19T00:11:42.957Z,52.53
2023-04-19T00:12:43.002Z,51.72
2023-04-19T00:13:42.933Z,52.37
2023-04-19T00:14:42.928Z,52.37
2023-04-19T00:15:42.920Z,52.05
2023-04-19T00:16:42.954Z,52.37
2023-04-19T00:17:42.918Z,52.37
2023-04-19T00:18:42.960Z,52.37
2023-04-19T00:19:42.921Z,52.69
2023-04-19T00:20:42.893Z,52.37
2023-04-19T00:21:42.890Z,52.21
2023-04-19T00:22:42.854Z,52.53
2023-04-19T00:23:43.090Z,52.05
2023-04-19T00:24:42.929Z,52.37
2023-04-19T00:25:42.830Z,52.37
2023-04-19T00:26:42.862Z,52.05
2023-04-19T00:27:42.837Z,51.24
2023-04-19T00:28:42.817Z,51.56
2023-04-19T00:29:42.962Z,51.88
2023-04-19T00:30:42.884Z,52.53
2023-04-19T00:31:42.847Z,52.37
2023-04-19T00:32:42.868Z,52.53
2023-04-19T00:33:42.906Z,52.05
2023-04-19T00:34:42.817Z,52.05
2023-04-19T00:35:42.815Z,52.05
2023-04-19T00:36:42.809Z,52.21
2023-04-19T00:37:42.782Z,52.69
2023-04-19T00:38:42.733Z,52.85
2023-04-19T00:39:42.757Z,52.21
2023-04-19T00:40:42.734Z,52.85
2023-04-19T00:41:42.751Z,52.21
2023-04-19T00:42:43.137Z,52.53
2023-04-19T00:43:42.702Z,52.21
2023-04-19T00:44:42.711Z,52.53
2023-04-19T00:45:42.716Z,52.05
2023-04-19T00:46:42.785Z,52.53
2023-04-19T00:47:42.722Z,52.53
2023-04-19T00:48:42.765Z,52.53
2023-04-19T00:49:42.723Z,52.05
2023-04-19T00:50:42.676Z,52.05
2023-04-19T00:51:42.657Z,52.05
2023-04-19T00:52:42.689Z,52.53
2023-04-19T00:53:42.668Z,52.05
2023-04-19T00:54:42.754Z,52.69
2023-04-19T00:55:42.636Z,52.37
2023-04-19T00:56:42.617Z,52.69
2023-04-19T00:57:42.604Z,51.24
2023-04-19T00:58:42.607Z,52.69
2023-04-19T00:59:42.599Z,52.53
2023-04-19T01:00:42.636Z,53.01
2023-04-19T01:01:42.586Z,52.37
2023-04-19T01:02:42.718Z,52.53
2023-04-19T01:03:42.763Z,52.53
2023-04-19T01:04:42.581Z,52.53
2023-04-19T01:05:42.588Z,51.56
2023-04-19T01:06:42.599Z,52.05
2023-04-19T01:07:42.554Z,52.53
2023-04-19T01:08:42.586Z,52.37
2023-04-19T01:09:42.601Z,52.53
2023-04-19T01:10:42.543Z,52.37
2023-04-19T01:11:43.324Z,52.53
2023-04-19T01:12:42.562Z,52.69
2023-04-19T01:13:42.508Z,52.53
2023-04-19T01:14:42.511Z,52.53
2023-04-19T01:15:42.512Z,52.37
2023-04-19T01:16:42.472Z,52.53
2023-04-19T01:17:42.540Z,52.37
2023-04-19T01:18:42.529Z,53.17
2023-04-19T01:19:42.497Z,53.17
2023-04-19T01:20:42.491Z,52.53
2023-04-19T01:21:42.420Z,52.85
2023-04-19T01:22:42.443Z,52.21
2023-04-19T01:23:42.436Z,52.21
2023-04-19T01:24:42.483Z,52.85
2023-04-19T01:25:42.423Z,52.21
2023-04-19T01:26:42.445Z,52.53
2023-04-19T01:27:42.440Z,52.69
2023-04-19T01:28:42.400Z,52.37
2023-04-19T01:29:42.378Z,51.72
2023-04-19T01:30:42.446Z,52.21
2023-04-19T01:31:42.444Z,52.69
2023-04-19T01:32:42.397Z,52.69
2023-04-19T01:33:42.381Z,53.17
2023-04-19T01:34:42.354Z,53.17
2023-04-19T01:35:42.352Z,53.17
2023-04-19T01:36:42.370Z,52.05
2023-04-19T01:37:42.321Z,52.21
2023-04-19T01:38:42.315Z,52.37
2023-04-19T01:39:42.318Z,52.85
2023-04-19T01:40:42.313Z,52.85
2023-04-19T01:41:42.343Z,52.69
2023-04-19T01:42:42.511Z,52.69
2023-04-19T01:43:42.311Z,52.85
2023-04-19T01:44:42.283Z,52.69
2023-04-19T01:45:42.255Z,52.85
2023-04-19T01:46:42.404Z,52.85
2023-04-19T01:47:42.354Z,52.21
2023-04-19T01:48:42.281Z,52.85
2023-04-19T01:49:42.263Z,52.69
2023-04-19T01:50:42.246Z,52.53
2023-04-19T01:51:42.260Z,52.53
2023-04-19T01:52:42.222Z,52.85
2023-04-19T01:53:42.218Z,52.37
2023-04-19T01:54:42.306Z,52.69
2023-04-19T01:55:42.214Z,52.85
2023-04-19T01:56:42.201Z,52.53
2023-04-19T01:57:42.187Z,52.53
2023-04-19T01:58:42.187Z,52.69
2023-04-19T01:59:42.181Z,52.85
2023-04-19T02:00:42.221Z,53.01
2023-04-19T02:01:42.220Z,52.85
2023-04-19T02:02:42.258Z,52.53
2023-04-19T02:03:42.237Z,52.69
2023-04-19T02:04:42.126Z,52.85
2023-04-19T02:05:42.145Z,52.85
2023-04-19T02:06:42.168Z,53.01
2023-04-19T02:07:42.132Z,52.69
2023-04-19T02:08:42.126Z,52.05
2023-04-19T02:09:42.138Z,52.53
2023-04-19T02:10:42.161Z,52.53
2023-04-19T02:11:42.092Z,52.85
2023-04-19T02:12:42.151Z,51.88
2023-04-19T02:13:42.088Z,52.69
2023-04-19T02:14:42.105Z,52.37
2023-04-19T02:15:42.063Z,52.53
2023-04-19T02:16:42.134Z,52.85
2023-04-19T02:17:42.101Z,52.53
2023-04-19T02:18:42.140Z,52.85
2023-04-19T02:19:42.058Z,52.85
2023-04-19T02:20:42.032Z,53.01
2023-04-19T02:21:42.019Z,52.69
2023-04-19T02:22:42.021Z,52.53
2023-04-19T02:23:42.003Z,53.01
2023-04-19T02:24:42.053Z,53.01
2023-04-19T02:25:42.019Z,53.17
2023-04-19T02:26:42.011Z,52.85
2023-04-19T02:27:41.970Z,52.85
2023-04-19T02:28:41.989Z,53.01
2023-04-19T02:29:41.975Z,52.85
2023-04-19T02:30:42.014Z,52.53
2023-04-19T02:31:41.993Z,52.69
2023-04-19T02:32:41.973Z,52.69
2023-04-19T02:33:41.966Z,52.53
2023-04-19T02:34:41.953Z,52.69
2023-04-19T02:35:41.938Z,52.53
2023-04-19T02:36:41.974Z,52.69
2023-04-19T02:37:41.929Z,53.33
2023-04-19T02:38:41.911Z,53.50
2023-04-19T02:39:41.910Z,52.69
2023-04-19T02:40:41.897Z,52.37
2023-04-19T02:41:41.918Z,52.85
2023-04-19T02:42:41.922Z,52.53
2023-04-19T02:43:41.863Z,52.53
2023-04-19T02:44:41.878Z,52.69
2023-04-19T02:45:41.885Z,52.53
2023-04-19T02:46:41.853Z,52.37
2023-04-19T02:47:41.900Z,52.53
2023-04-19T02:48:42.363Z,52.85
2023-04-19T02:49:41.812Z,53.01
2023-04-19T02:50:41.838Z,53.01
2023-04-19T02:51:41.815Z,53.17
2023-04-19T02:52:41.826Z,53.01
2023-04-19T02:53:41.804Z,52.69
2023-04-19T02:54:41.855Z,52.53
2023-04-19T02:55:41.784Z,52.85
2023-04-19T02:56:41.798Z,52.85
2023-04-19T02:57:41.761Z,52.85
2023-04-19T02:58:41.769Z,52.85
2023-04-19T02:59:41.779Z,52.85
2023-04-19T03:00:41.805Z,53.01
2023-04-19T03:01:41.897Z,52.85
2023-04-19T03:02:41.884Z,53.01
2023-04-19T03:03:41.887Z,53.01
2023-04-19T03:04:41.711Z,52.85
2023-04-19T03:05:41.712Z,52.53
2023-04-19T03:06:41.731Z,52.69
2023-04-19T03:07:44.335Z,53.17
2023-04-19T03:08:41.694Z,53.33
2023-04-19T03:09:41.701Z,52.05
2023-04-19T03:10:41.697Z,53.17
2023-04-19T03:11:41.691Z,53.01
2023-04-19T03:12:41.712Z,52.69
2023-04-19T03:13:41.640Z,53.17
2023-04-19T03:14:41.650Z,52.85
2023-04-19T03:15:41.688Z,52.85
2023-04-19T03:16:41.616Z,52.53
2023-04-19T03:17:41.646Z,53.66
2023-04-19T03:18:41.686Z,53.01
2023-04-19T03:19:41.626Z,53.01
2023-04-19T03:20:41.598Z,52.85
2023-04-19T03:21:41.572Z,52.85
2023-04-19T03:22:41.573Z,53.01
2023-04-19T03:23:41.592Z,52.85
2023-04-19T03:24:41.733Z,53.82
2023-04-19T03:25:41.557Z,53.33
2023-04-19T03:26:41.557Z,53.01
2023-04-19T03:27:41.536Z,52.53
2023-04-19T03:28:41.533Z,53.17
2023-04-19T03:29:41.522Z,53.01
2023-04-19T03:30:41.614Z,53.50
2023-04-19T03:31:41.645Z,53.50
2023-04-19T03:32:41.553Z,52.85
2023-04-19T03:33:41.508Z,53.17
2023-04-19T03:34:41.486Z,53.17
2023-04-19T03:35:41.480Z,53.66
2023-04-19T03:36:41.506Z,53.66
2023-04-19T03:37:41.464Z,53.50
2023-04-19T03:38:41.476Z,54.14
2023-04-19T03:39:41.453Z,54.14
2023-04-19T03:40:41.452Z,53.66
2023-04-19T03:41:41.435Z,53.98
2023-04-19T03:42:41.490Z,53.98
2023-04-19T03:43:41.455Z,53.50
2023-04-19T03:44:41.441Z,53.98
2023-04-19T03:45:41.392Z,54.14
2023-04-19T03:46:41.410Z,53.33
2023-04-19T03:47:41.459Z,56.88
2023-04-19T03:48:41.425Z,52.85
2023-04-19T03:49:41.380Z,54.46
2023-04-19T03:50:41.378Z,53.98
2023-04-19T03:51:41.386Z,53.98
2023-04-19T03:52:41.349Z,53.98
2023-04-19T03:53:41.348Z,54.30
2023-04-19T03:54:41.599Z,53.82
2023-04-19T03:55:41.329Z,54.30
2023-04-19T03:56:41.307Z,54.62
2023-04-19T03:57:41.302Z,54.62
2023-04-19T03:58:42.774Z,54.14
2023-04-19T03:59:41.309Z,54.46
2023-04-19T04:00:41.314Z,54.46
2023-04-19T04:01:41.297Z,55.43
2023-04-19T04:02:41.434Z,54.95
2023-04-19T04:03:41.631Z,54.95
2023-04-19T04:04:41.531Z,59.14
2023-04-19T04:05:41.368Z,60.10
2023-04-19T04:06:41.268Z,56.56
2023-04-19T04:07:41.221Z,56.88
2023-04-19T04:08:41.226Z,61.07
2023-04-19T04:09:41.217Z,59.30
2023-04-19T04:10:41.218Z,63.65
2023-04-19T04:11:41.204Z,64.45
2023-04-19T04:12:41.255Z,66.55
2023-04-19T04:13:41.196Z,59.94
2023-04-19T04:14:41.173Z,58.65
2023-04-19T04:15:41.157Z,63.16
2023-04-19T04:16:41.209Z,66.39
2023-04-19T04:17:41.193Z,59.62
2023-04-19T04:18:41.207Z,61.23
2023-04-19T04:19:41.144Z,61.87
2023-04-19T04:20:41.135Z,57.04
2023-04-19T04:21:41.142Z,58.81
2023-04-19T04:22:41.135Z,60.26
2023-04-19T04:23:41.115Z,56.72
2023-04-19T04:24:41.141Z,64.29
2023-04-19T04:25:41.104Z,54.62
2023-04-19T04:26:41.076Z,53.82
2023-04-19T04:27:41.096Z,54.14
2023-04-19T04:28:42.104Z,54.46
2023-04-19T04:29:41.076Z,54.46
2023-04-19T04:30:41.121Z,54.46
2023-04-19T04:31:41.105Z,57.69
2023-04-19T04:32:41.262Z,53.98
2023-04-19T04:33:41.059Z,53.50
2023-04-19T04:34:41.064Z,53.01
2023-04-19T04:35:41.068Z,53.66
2023-04-19T04:36:41.070Z,53.66
2023-04-19T04:37:41.025Z,53.66
2023-04-19T04:38:41.015Z,53.66
2023-04-19T04:39:41.030Z,53.50
2023-04-19T04:40:41.006Z,53.98
2023-04-19T04:41:40.984Z,54.46
2023-04-19T04:42:41.023Z,53.50
2023-04-19T04:43:40.990Z,53.17
2023-04-19T04:44:40.977Z,53.50
2023-04-19T04:45:41.029Z,53.50
2023-04-19T04:46:40.968Z,54.30
2023-04-19T04:47:41.012Z,55.11
2023-04-19T04:48:41.011Z,53.50
2023-04-19T04:49:40.954Z,53.82
2023-04-19T04:50:40.968Z,57.85
2023-04-19T04:51:40.930Z,58.33
2023-04-19T04:52:40.924Z,58.65
2023-04-19T04:53:40.952Z,59.14
2023-04-19T04:54:40.949Z,58.97
2023-04-19T04:55:40.900Z,58.97
2023-04-19T04:56:40.963Z,59.62
2023-04-19T04:57:40.903Z,60.42
2023-04-19T04:58:40.876Z,60.42
2023-04-19T04:59:40.867Z,60.10
2023-04-19T05:00:41.355Z,59.62
2023-04-19T05:01:40.971Z,59.30
2023-04-19T05:02:41.022Z,59.30
2023-04-19T05:03:40.836Z,59.62
2023-04-19T05:04:40.947Z,59.14
2023-04-19T05:05:41.208Z,59.78
2023-04-19T05:06:40.888Z,59.46
2023-04-19T05:07:40.824Z,58.17
2023-04-19T05:08:40.831Z,57.04
2023-04-19T05:09:40.808Z,57.20
2023-04-19T05:10:40.809Z,57.52
2023-04-19T05:11:40.785Z,57.52
2023-04-19T05:12:40.831Z,57.20
2023-04-19T05:13:40.790Z,58.17
2023-04-19T05:14:40.764Z,57.52
2023-04-19T05:15:40.774Z,58.49
2023-04-19T05:16:40.790Z,58.01
2023-04-19T05:17:40.746Z,57.69
2023-04-19T05:18:40.799Z,58.49
2023-04-19T05:19:40.729Z,58.01
2023-04-19T05:20:40.748Z,58.81
2023-04-19T05:21:40.732Z,57.85
2023-04-19T05:22:40.717Z,58.17
2023-04-19T05:23:40.738Z,58.33
2023-04-19T05:24:42.365Z,57.85
2023-04-19T05:25:40.726Z,57.20
2023-04-19T05:26:40.677Z,58.97
2023-04-19T05:27:40.678Z,58.65
2023-04-19T05:28:40.669Z,58.17
2023-04-19T05:29:40.683Z,59.14
2023-04-19T05:30:40.696Z,59.14
2023-04-19T05:31:40.654Z,56.56
2023-04-19T05:32:40.663Z,55.75
2023-04-19T05:33:40.625Z,55.27
2023-04-19T05:34:40.627Z,55.27
2023-04-19T05:35:40.620Z,54.95
2023-04-19T05:36:40.665Z,55.27
2023-04-19T05:37:40.606Z,54.46
2023-04-19T05:38:40.596Z,56.40
2023-04-19T05:39:42.871Z,56.88
2023-04-19T05:40:40.571Z,56.72
2023-04-19T05:41:40.579Z,56.56
2023-04-19T05:42:40.614Z,57.69
2023-04-19T05:43:40.586Z,55.27
2023-04-19T05:44:40.545Z,54.95
2023-04-19T05:45:40.544Z,54.46
2023-04-19T05:46:40.594Z,55.59
2023-04-19T05:47:40.548Z,55.11
2023-04-19T05:48:40.565Z,54.79
2023-04-19T05:49:42.022Z,54.14
2023-04-19T05:50:40.509Z,52.85
2023-04-19T05:51:40.499Z,54.46
2023-04-19T05:52:40.505Z,54.62
2023-04-19T05:53:40.507Z,54.95
2023-04-19T05:54:40.540Z,54.30
2023-04-19T05:55:40.491Z,54.46
2023-04-19T05:56:40.465Z,55.11
2023-04-19T05:57:40.493Z,54.14
2023-04-19T05:58:40.465Z,55.91
2023-04-19T05:59:40.438Z,54.95
2023-04-19T06:00:40.481Z,54.79
2023-04-19T06:01:40.452Z,54.30
2023-04-19T06:02:40.524Z,53.98
2023-04-19T06:03:40.512Z,54.95
2023-04-19T06:04:40.652Z,54.30
2023-04-19T06:05:40.491Z,53.98
2023-04-19T06:06:40.870Z,53.33
2023-04-19T06:07:43.958Z,53.66
2023-04-19T06:08:41.387Z,54.30
2023-04-19T06:09:40.377Z,58.01
2023-04-19T06:10:53.758Z,56.56
2023-04-19T06:11:50.113Z,56.72
2023-04-19T06:12:41.357Z,53.50
2023-04-19T06:13:40.348Z,53.50
2023-04-19T06:14:40.331Z,53.82
2023-04-19T06:15:40.374Z,55.59
2023-04-19T06:16:40.364Z,54.79
2023-04-19T06:17:40.382Z,55.59
2023-04-19T06:18:40.302Z,55.27
2023-04-19T06:19:40.296Z,54.95
2023-04-19T06:20:40.292Z,55.43
2023-04-19T06:21:40.282Z,55.11
2023-04-19T06:22:40.305Z,55.91
2023-04-19T06:23:40.314Z,55.11
2023-04-19T06:24:40.254Z,57.04
2023-04-19T06:25:40.278Z,57.04
2023-04-19T06:26:40.282Z,57.20
2023-04-19T06:27:40.235Z,58.17
2023-04-19T06:28:40.260Z,57.04
2023-04-19T06:29:40.274Z,57.36
2023-04-19T06:30:40.237Z,55.59
2023-04-19T06:31:40.276Z,55.27
2023-04-19T06:32:40.237Z,54.95
2023-04-19T06:33:40.223Z,55.91
2023-04-19T06:34:40.194Z,56.40
2023-04-19T06:35:40.235Z,54.79
2023-04-19T06:36:40.220Z,56.72
2023-04-19T06:37:40.190Z,57.52
2023-04-19T06:38:40.274Z,54.62
2023-04-19T06:39:40.195Z,55.59
2023-04-19T06:40:40.139Z,54.95
2023-04-19T06:41:40.191Z,55.27
2023-04-19T06:42:40.348Z,56.56
2023-04-19T06:43:40.243Z,55.91
2023-04-19T06:44:40.145Z,56.40
2023-04-19T06:45:40.114Z,53.98
2023-04-19T06:46:40.105Z,54.46
2023-04-19T06:47:40.224Z,56.24
2023-04-19T06:48:40.094Z,54.46
2023-04-19T06:49:40.092Z,55.43
2023-04-19T06:50:40.068Z,57.36
2023-04-19T06:51:40.083Z,56.88
2023-04-19T06:52:40.087Z,56.72
2023-04-19T06:53:40.095Z,56.07
2023-04-19T06:54:40.081Z,58.17
2023-04-19T06:55:40.032Z,55.75
2023-04-19T06:56:40.026Z,55.91
2023-04-19T06:57:40.047Z,55.11
2023-04-19T06:58:40.040Z,54.95
2023-04-19T06:59:40.079Z,54.95
2023-04-19T07:00:39.997Z,58.49
2023-04-19T07:01:40.006Z,55.43
2023-04-19T07:02:40.132Z,55.59
2023-04-19T07:03:40.063Z,56.72
2023-04-19T07:04:40.156Z,55.91
2023-04-19T07:05:40.006Z,55.43
2023-04-19T07:06:39.968Z,56.88
2023-04-19T07:07:39.960Z,54.79
2023-04-19T07:08:49.109Z,55.75
2023-04-19T07:09:40.959Z,55.27
2023-04-19T07:10:40.033Z,55.11
2023-04-19T07:11:40.343Z,54.62
2023-04-19T07:12:39.914Z,54.79
2023-04-19T07:13:39.924Z,55.91
2023-04-19T07:14:39.899Z,55.43
2023-04-19T07:15:39.940Z,54.14
2023-04-19T07:16:39.879Z,55.59
2023-04-19T07:17:39.936Z,56.56
2023-04-19T07:18:39.856Z,55.43
2023-04-19T07:19:39.863Z,54.62
2023-04-19T07:20:39.833Z,54.30
2023-04-19T07:21:39.856Z,53.50
2023-04-19T07:22:39.837Z,54.30
2023-04-19T07:23:39.855Z,54.46
2023-04-19T07:24:39.830Z,54.79
2023-04-19T07:25:39.813Z,54.30
2023-04-19T07:26:39.804Z,55.75
2023-04-19T07:27:39.795Z,55.75
2023-04-19T07:28:39.819Z,55.59
2023-04-19T07:29:39.830Z,55.59
2023-04-19T07:30:39.771Z,55.43
2023-04-19T07:31:39.808Z,56.07
2023-04-19T07:32:39.965Z,55.91
2023-04-19T07:33:39.765Z,54.95
2023-04-19T07:34:39.740Z,55.43
2023-04-19T07:35:39.775Z,55.91
2023-04-19T07:36:39.753Z,53.82
2023-04-19T07:37:39.757Z,54.30
2023-04-19T07:38:39.727Z,54.46
2023-04-19T07:39:39.715Z,54.62
2023-04-19T07:40:39.678Z,55.11
2023-04-19T07:41:39.725Z,56.56
2023-04-19T07:42:39.693Z,55.11
2023-04-19T07:43:40.647Z,54.46
2023-04-19T07:44:39.663Z,56.72
2023-04-19T07:45:39.669Z,54.30
2023-04-19T07:46:39.692Z,53.98
2023-04-19T07:47:39.761Z,53.82
2023-04-19T07:48:39.654Z,56.40
2023-04-19T07:49:39.635Z,53.50
2023-04-19T07:50:39.644Z,54.95
2023-04-19T07:51:39.641Z,54.79
2023-04-19T07:52:39.605Z,53.82
2023-04-19T07:53:39.645Z,53.98
2023-04-19T07:54:39.591Z,55.11
2023-04-19T07:55:39.577Z,53.98
2023-04-19T07:56:39.581Z,54.62
2023-04-19T07:57:39.591Z,52.69
2023-04-19T07:58:39.584Z,55.27
2023-04-19T07:59:39.615Z,55.27
2023-04-19T08:00:40.332Z,54.95
2023-04-19T08:01:39.648Z,54.79
2023-04-19T08:02:39.653Z,55.43
2023-04-19T08:03:39.872Z,55.11
2023-04-19T08:04:40.018Z,54.46
2023-04-19T08:05:39.656Z,54.62
2023-04-19T08:06:39.522Z,55.59
2023-04-19T08:07:39.518Z,54.14
2023-04-19T08:08:39.487Z,54.95
2023-04-19T08:09:39.517Z,54.62
2023-04-19T08:10:39.471Z,54.79
2023-04-19T08:11:39.541Z,58.17
2023-04-19T08:12:47.347Z,58.01
2023-04-19T08:13:40.537Z,57.69
2023-04-19T08:14:51.586Z,56.40
2023-04-19T08:17:08.994Z,55.27
2023-04-19T08:17:42.351Z,56.56
2023-04-19T08:18:39.400Z,56.40
2023-04-19T08:19:39.411Z,54.46
2023-04-19T08:20:39.405Z,54.79
2023-04-19T08:21:41.449Z,53.66
2023-04-19T08:22:39.391Z,56.24
2023-04-19T08:23:47.896Z,56.56
2023-04-19T08:24:40.389Z,56.56
2023-04-19T08:25:39.354Z,56.88
2023-04-19T08:26:39.350Z,55.27
2023-04-19T08:27:39.352Z,54.62
2023-04-19T08:28:39.364Z,53.82
2023-04-19T08:29:39.413Z,58.17
2023-04-19T08:30:39.364Z,54.95
2023-04-19T08:31:39.374Z,55.91
2023-04-19T08:32:39.339Z,54.79
2023-04-19T08:33:39.323Z,58.17
2023-04-19T08:34:39.319Z,57.52
2023-04-19T08:35:39.314Z,58.01
2023-04-19T08:36:45.935Z,58.17
2023-04-19T08:37:40.304Z,58.17
2023-04-19T08:38:39.285Z,57.36
2023-04-19T08:39:39.583Z,58.17
2023-04-19T08:40:39.306Z,57.69
2023-04-19T08:41:39.295Z,57.52
2023-04-19T08:42:39.252Z,57.52
2023-04-19T08:43:40.477Z,57.04
2023-04-19T08:44:48.982Z,56.24
2023-04-19T08:45:40.259Z,56.72
2023-04-19T08:46:39.212Z,57.36
2023-04-19T08:48:39.251Z,53.82
2023-04-19T08:49:41.599Z,53.82
2023-04-19T08:50:48.840Z,52.69
2023-04-19T08:51:40.218Z,52.53
2023-04-19T08:52:51.792Z,54.79
2023-04-19T08:53:40.202Z,54.46
2023-04-19T08:54:39.139Z,52.21
2023-04-19T08:55:40.913Z,53.17
2023-04-19T08:56:40.132Z,54.14
2023-04-19T08:57:39.125Z,55.91
2023-04-19T08:58:57.095Z,54.79
2023-04-19T08:59:40.153Z,55.27
2023-04-19T09:00:39.123Z,53.98
2023-04-19T09:01:40.016Z,54.79
2023-04-19T09:02:39.342Z,54.62
2023-04-19T09:03:51.179Z,53.17
2023-04-19T09:04:40.260Z,51.88
2023-04-19T09:05:39.277Z,53.33
2023-04-19T09:06:39.263Z,53.50
2023-04-19T09:07:39.065Z,51.88
2023-04-19T09:08:39.042Z,52.37
2023-04-19T09:09:51.695Z,53.33
2023-04-19T09:10:40.082Z,53.66
2023-04-19T09:11:39.053Z,53.82
2023-04-19T09:12:39.032Z,55.59
2023-04-19T09:13:39.024Z,54.14
2023-04-19T09:14:40.029Z,53.17
2023-04-19T09:15:39.044Z,54.62
2023-04-19T09:16:39.171Z,52.37
2023-04-19T09:17:39.242Z,52.53
2023-04-19T09:18:48.782Z,53.33
2023-04-19T09:19:39.960Z,54.30
2023-04-19T09:20:38.974Z,53.01
2023-04-19T09:21:38.985Z,53.01
2023-04-19T09:22:39.192Z,53.17
2023-04-19T09:23:38.932Z,53.50
2023-04-19T09:25:02.563Z,53.01
2023-04-19T09:26:38.910Z,52.21
2023-04-19T09:27:38.901Z,52.05
2023-04-19T09:28:38.982Z,52.85
2023-04-19T09:29:38.923Z,53.66
2023-04-19T09:30:50.111Z,52.05
2023-04-19T09:32:38.928Z,54.46
2023-04-19T09:33:38.963Z,52.53
2023-04-19T09:34:38.893Z,53.82
2023-04-19T09:35:38.860Z,54.14
2023-04-19T09:36:38.854Z,53.01
2023-04-19T09:38:01.903Z,52.85
2023-04-19T09:38:39.812Z,54.79
2023-04-19T09:39:38.864Z,52.69
2023-04-19T09:40:38.892Z,53.33
2023-04-19T09:41:39.533Z,52.21
2023-04-19T09:42:58.770Z,52.53
2023-04-19T09:45:38.904Z,54.14
2023-04-19T09:46:38.933Z,52.85
2023-04-19T09:47:38.865Z,53.33
2023-04-19T09:48:38.827Z,53.98
2023-04-19T09:49:48.469Z,54.62
2023-04-19T09:50:51.306Z,54.30
2023-04-19T09:51:39.776Z,53.50
2023-04-19T09:52:38.815Z,52.37
2023-04-19T09:53:38.823Z,53.33
2023-04-19T09:54:38.850Z,54.14
2023-04-19T09:55:48.969Z,53.50
2023-04-19T09:56:39.730Z,56.40
2023-04-19T09:57:38.839Z,55.11
2023-04-19T09:58:50.039Z,54.30
2023-04-19T09:59:39.717Z,56.88
2023-04-19T10:00:47.927Z,57.20
2023-04-19T10:01:39.707Z,57.04
2023-04-19T10:02:38.789Z,58.01
2023-04-19T10:03:38.830Z,55.91
2023-04-19T10:05:39.733Z,55.59
2023-04-19T10:06:58.390Z,53.66
2023-04-19T10:07:39.686Z,52.53
2023-04-19T10:08:38.634Z,53.33
2023-04-19T10:09:46.165Z,53.17
2023-04-19T10:10:42.381Z,53.50
2023-04-19T10:11:40.055Z,55.27
2023-04-19T10:13:04.003Z,56.40
2023-04-19T10:13:39.615Z,56.07
2023-04-19T10:14:38.601Z,54.95
2023-04-19T10:16:38.650Z,53.33
2023-04-19T10:17:38.673Z,55.59
2023-04-19T10:18:38.572Z,55.59
2023-04-19T10:19:38.568Z,56.56
2023-04-19T10:20:38.569Z,57.04
2023-04-19T10:21:38.609Z,55.11
2023-04-19T10:22:38.554Z,53.01
2023-04-19T10:23:38.515Z,53.50
2023-04-19T10:24:38.510Z,55.27
2023-04-19T10:25:38.529Z,56.07
2023-04-19T10:26:38.528Z,57.04
2023-04-19T10:27:38.868Z,55.59
2023-04-19T10:28:38.521Z,52.53
2023-04-19T10:29:38.494Z,52.21
2023-04-19T10:30:38.494Z,51.40
2023-04-19T10:31:38.525Z,52.21
2023-04-19T10:32:38.521Z,51.72
2023-04-19T10:33:38.520Z,53.17
2023-04-19T10:34:38.457Z,51.24
2023-04-19T10:35:38.502Z,52.37
2023-04-19T10:36:38.504Z,52.37
2023-04-19T10:37:38.441Z,52.37
2023-04-19T10:38:38.487Z,50.76
2023-04-19T10:39:38.434Z,52.69
2023-04-19T10:40:38.416Z,52.37
2023-04-19T10:41:38.412Z,56.07
2023-04-19T10:42:38.373Z,54.79
2023-04-19T10:43:38.408Z,54.14
2023-04-19T10:44:38.380Z,54.14
2023-04-19T10:45:38.428Z,54.46
2023-04-19T10:46:38.653Z,57.20
2023-04-19T10:47:38.370Z,56.72
2023-04-19T10:48:38.364Z,55.11
2023-04-19T10:49:38.334Z,57.04
2023-04-19T10:50:38.382Z,55.75
2023-04-19T10:51:38.356Z,54.46
2023-04-19T10:52:38.368Z,53.98
2023-04-19T10:53:38.293Z,57.52
2023-04-19T10:54:38.305Z,55.27
2023-04-19T10:55:38.356Z,55.91
2023-04-19T10:56:38.333Z,58.01
2023-04-19T10:57:38.371Z,57.04
2023-04-19T10:58:38.282Z,56.40
2023-04-19T10:59:38.258Z,54.95
2023-04-19T11:00:38.274Z,56.07
2023-04-19T11:01:38.295Z,55.75
2023-04-19T11:02:38.363Z,56.88
2023-04-19T11:03:38.449Z,56.72
2023-04-19T11:04:38.315Z,56.56
2023-04-19T11:05:38.243Z,57.04
2023-04-19T11:06:38.222Z,58.49
2023-04-19T11:07:38.209Z,56.07
2023-04-19T11:08:38.185Z,56.88
2023-04-19T11:09:38.222Z,53.01
2023-04-19T11:10:38.195Z,56.07
2023-04-19T11:11:38.160Z,56.56
2023-04-19T11:12:38.186Z,53.82
2023-04-19T11:13:38.184Z,55.11
2023-04-19T11:14:38.189Z,53.98
2023-04-19T11:15:38.203Z,53.50
2023-04-19T11:16:45.747Z,52.21
2023-04-19T11:17:39.178Z,52.53
2023-04-19T11:18:38.177Z,54.79
2023-04-19T11:19:38.151Z,53.98
2023-04-19T11:20:38.115Z,51.88
2023-04-19T11:21:38.177Z,53.98
2023-04-19T11:22:38.089Z,53.50
2023-04-19T11:23:38.074Z,53.50
2023-04-19T11:24:38.083Z,52.53
2023-04-19T11:25:38.091Z,56.24
2023-04-19T11:26:38.049Z,55.27
2023-04-19T11:27:38.241Z,55.11
2023-04-19T11:28:38.094Z,52.05
2023-04-19T11:29:38.051Z,51.08
2023-04-19T11:30:38.037Z,50.92
2023-04-19T11:31:38.066Z,52.53
2023-04-19T11:32:38.023Z,55.27
2023-04-19T11:33:38.355Z,56.24
2023-04-19T11:34:38.001Z,55.43
2023-04-19T11:35:37.991Z,55.59
2023-04-19T11:36:37.970Z,55.59
2023-04-19T11:37:38.026Z,54.95
2023-04-19T11:38:37.991Z,53.82
2023-04-19T11:39:38.012Z,54.14
2023-04-19T11:40:38.009Z,55.91
2023-04-19T11:41:37.951Z,56.24
2023-04-19T11:42:37.951Z,55.75
2023-04-19T11:43:37.980Z,55.43
2023-04-19T11:44:37.978Z,55.59
2023-04-19T11:45:39.513Z,54.46
2023-04-19T11:46:37.992Z,54.79
2023-04-19T11:47:37.930Z,54.95
2023-04-19T11:48:37.947Z,53.98
2023-04-19T11:49:37.910Z,55.11
2023-04-19T11:50:37.982Z,55.59
2023-04-19T11:51:37.959Z,54.14
2023-04-19T11:52:37.892Z,52.21
2023-04-19T11:53:37.855Z,54.14
2023-04-19T11:54:37.924Z,55.75
2023-04-19T11:55:37.897Z,56.88
2023-04-19T11:56:37.906Z,56.56
2023-04-19T11:57:38.341Z,55.91
2023-04-19T11:58:38.041Z,55.11
2023-04-19T11:59:37.847Z,55.43
2023-04-19T12:00:37.940Z,56.24
2023-04-19T12:01:37.817Z,57.69
2023-04-19T12:02:37.865Z,57.85
2023-04-19T12:03:38.007Z,56.24
2023-04-19T12:04:37.977Z,56.72
2023-04-19T12:05:37.990Z,55.75
2023-04-19T12:06:37.817Z,56.88
2023-04-19T12:07:37.815Z,57.20
2023-04-19T12:08:37.812Z,56.07
2023-04-19T12:09:37.822Z,56.56
2023-04-19T12:10:37.826Z,57.04
2023-04-19T12:11:37.764Z,57.36
2023-04-19T12:12:37.776Z,56.56
2023-04-19T12:13:37.732Z,56.07
2023-04-19T12:14:37.735Z,57.04
2023-04-19T12:15:37.814Z,57.52
2023-04-19T12:16:37.783Z,57.20
2023-04-19T12:17:40.104Z,57.36
2023-04-19T12:18:38.691Z,55.91
2023-04-19T12:19:37.737Z,55.59
2023-04-19T12:20:37.727Z,56.24
2023-04-19T12:21:37.734Z,54.79
2023-04-19T12:22:37.695Z,54.30
2023-04-19T12:23:37.693Z,54.95
2023-04-19T12:24:37.686Z,55.27
2023-04-19T12:25:37.657Z,56.07
2023-04-19T12:26:37.645Z,55.43
2023-04-19T12:27:37.675Z,55.27
2023-04-19T12:28:37.644Z,53.98
2023-04-19T12:29:37.648Z,56.07
2023-04-19T12:30:37.729Z,54.46
2023-04-19T12:31:37.617Z,54.62
2023-04-19T12:32:37.641Z,54.46
2023-04-19T12:33:37.633Z,54.79
2023-04-19T12:34:37.622Z,55.11
2023-04-19T12:35:37.581Z,55.11
2023-04-19T12:36:37.575Z,55.91
2023-04-19T12:37:37.539Z,56.88
2023-04-19T12:38:37.571Z,57.36
2023-04-19T12:39:37.807Z,56.40
2023-04-19T12:40:37.557Z,54.95
2023-04-19T12:41:37.576Z,56.40
2023-04-19T12:42:37.511Z,55.11
2023-04-19T12:43:37.508Z,54.79
2023-04-19T12:44:37.532Z,53.01
2023-04-19T12:45:37.637Z,50.60
2023-04-19T12:46:37.588Z,52.05
2023-04-19T12:47:37.502Z,52.53
2023-04-19T12:48:37.510Z,52.05
2023-04-19T12:49:37.530Z,53.66
2023-04-19T12:50:37.489Z,53.82
2023-04-19T12:51:37.553Z,53.33
2023-04-19T12:52:37.469Z,53.33
2023-04-19T12:53:37.472Z,51.24
2023-04-19T12:54:37.453Z,52.21
2023-04-19T12:55:37.446Z,54.14
2023-04-19T12:56:37.465Z,54.95
2023-04-19T12:57:37.469Z,56.88
2023-04-19T12:58:37.438Z,55.75
2023-04-19T12:59:37.404Z,56.56
2023-04-19T13:00:37.415Z,56.72